Time;durP1;ratioP1;P1;durP2;ratioP2;P2;SDS_P1;SDS_P2;PMS_P1;PMS_P2;Temp;Humidity;BMP_temperature;BMP_pressure;BME280_temperature;BME280_humidity;BME280_pressure;Samples;Min_cycle;Max_cycle;Signal;HPM_P1;HPM_P2
2023/12/03 00:00:40;;;;;;;0.10;0.10;;;;;;;4.02;100.00;99172.09;5092072;28;20043;-46
2023/12/03 00:03:08;;;;;;;0.10;0.10;;;;;;;3.93;100.00;99175.59;5091796;28;20052;-46
2023/12/03 00:05:35;;;;;;;0.10;0.10;;;;;;;4.11;100.00;99173.00;5090394;28;20016;-46
2023/12/03 00:08:01;;;;;;;0.20;0.20;;;;;;;3.90;100.00;99181.03;5091825;28;20027;-46
2023/12/03 00:10:27;;;;;;;2.67;0.90;;;;;;;3.71;100.00;99179.38;5090449;28;20024;-46
2023/12/03 00:12:53;;;;;;;0.05;0.05;;;;;;;3.74;100.00;99185.09;5092415;28;20024;-46
2023/12/03 00:15:19;;;;;;;1.75;0.50;;;;;;;4.06;100.00;99183.81;5095832;28;20546;-46
2023/12/03 00:17:44;;;;;;;10.55;2.83;;;;;;;4.28;100.00;99186.97;5095828;28;20024;-46
2023/12/03 00:20:10;;;;;;;0.57;0.57;;;;;;;4.61;100.00;99182.91;5095980;28;20020;-46
2023/12/03 00:22:36;;;;;;;0.00;0.00;;;;;;;4.34;100.00;99186.38;5094459;28;20024;-46
2023/12/03 00:25:02;;;;;;;0.40;0.40;;;;;;;4.12;100.00;99178.03;5095577;28;20028;-46
2023/12/03 00:27:28;;;;;;;0.10;0.10;;;;;;;3.66;100.00;99186.78;5095662;28;20020;-46
2023/12/03 00:29:54;;;;;;;9.07;4.28;;;;;;;3.60;100.00;99190.75;5095363;28;20501;-46
2023/12/03 00:32:19;;;;;;;0.73;0.73;;;;;;;3.93;100.00;99184.19;5094187;28;20078;-46
2023/12/03 00:34:45;;;;;;;0.22;0.22;;;;;;;4.10;100.00;99187.75;5095537;28;20416;-46
2023/12/03 00:37:11;;;;;;;0.25;0.25;;;;;;;3.97;100.00;99192.50;5095462;28;20073;-47
2023/12/03 00:39:37;;;;;;;0.40;0.40;;;;;;;3.97;100.00;99182.13;5094082;28;20077;-46
2023/12/03 00:42:03;;;;;;;0.10;0.10;;;;;;;4.00;100.00;99169.66;5094022;28;20436;-46
2023/12/03 00:44:29;;;;;;;0.20;0.20;;;;;;;3.92;100.00;99179.13;5093983;28;20375;-46
2023/12/03 00:46:54;;;;;;;0.10;0.10;;;;;;;3.84;100.00;99182.44;5095266;28;20023;-46
2023/12/03 00:49:20;;;;;;;0.00;0.00;;;;;;;3.72;100.00;99178.41;5095256;28;20047;-46
2023/12/03 00:51:46;;;;;;;0.10;0.10;;;;;;;3.65;100.00;99174.75;5095157;28;20085;-46
2023/12/03 00:54:11;;;;;;;0.20;0.20;;;;;;;3.74;100.00;99185.09;5093832;28;20367;-46
2023/12/03 00:56:37;;;;;;;0.28;0.28;;;;;;;3.79;100.00;99187.25;5095139;28;20024;-46
2023/12/03 00:59:03;;;;;;;0.10;0.10;;;;;;;3.75;100.00;99178.94;5093778;28;20066;-46
2023/12/03 01:01:28;;;;;;;1.13;1.10;;;;;;;3.89;100.00;99187.22;5095041;28;20555;-46
2023/12/03 01:03:54;;;;;;;0.10;0.10;;;;;;;4.25;100.00;99180.28;5094884;28;20062;-46
2023/12/03 01:06:20;;;;;;;0.10;0.10;;;;;;;4.12;100.00;99172.84;5094895;28;20040;-46
2023/12/03 01:08:45;;;;;;;0.20;0.20;;;;;;;3.97;100.00;99169.94;5094761;28;20020;-47
2023/12/03 01:11:11;;;;;;;0.13;0.13;;;;;;;3.96;100.00;99173.50;5093452;28;20036;-46
2023/12/03 01:13:37;;;;;;;0.00;0.00;;;;;;;3.80;100.00;99181.09;5094827;28;20496;-46
2023/12/03 01:16:03;;;;;;;1.05;1.02;;;;;;;3.52;100.00;99170.72;5093360;28;20076;-46
2023/12/03 01:18:28;;;;;;;0.30;0.30;;;;;;;3.23;100.00;99172.59;5093349;28;20529;-46
2023/12/03 01:20:54;;;;;;;0.00;0.00;;;;;;;3.11;100.00;99177.13;5094597;28;20028;-46
2023/12/03 01:23:20;;;;;;;0.63;0.63;;;;;;;2.73;100.00;99169.25;5094580;28;20016;-46
2023/12/03 01:25:46;;;;;;;0.20;0.20;;;;;;;2.44;100.00;99171.06;5094395;28;20542;-46
2023/12/03 01:28:13;;;;;;;0.00;0.00;;;;;;;2.16;100.00;99176.09;5094519;28;20371;-46
2023/12/03 01:30:38;;;;;;;0.35;0.35;;;;;;;1.86;100.00;99174.41;5094268;28;20090;-46
2023/12/03 01:33:04;;;;;;;0.47;0.47;;;;;;;1.67;100.00;99180.31;5094390;28;20123;-46
2023/12/03 01:35:30;;;;;;;0.10;0.10;;;;;;;1.56;100.00;99186.41;5094344;28;20952;-46
2023/12/03 01:37:55;;;;;;;0.10;0.10;;;;;;;1.45;100.00;99194.25;5092997;28;20501;-46
2023/12/03 01:40:21;;;;;;;0.15;0.15;;;;;;;1.34;100.00;99187.41;5092871;28;20474;-46
2023/12/03 01:42:47;;;;;;;0.10;0.10;;;;;;;1.20;100.00;99186.78;5094235;28;20035;-46
2023/12/03 01:45:13;;;;;;;0.10;0.10;;;;;;;1.17;100.00;99188.81;5092712;28;20023;-46
2023/12/03 01:47:39;;;;;;;0.10;0.10;;;;;;;1.17;100.00;99191.41;5094065;28;20485;-46
2023/12/03 01:50:06;;;;;;;0.10;0.10;;;;;;;1.13;100.00;99188.25;5094033;28;20099;-46
2023/12/03 01:52:36;;;;;;;2.30;1.48;;;;;;;1.13;100.00;99195.19;5092717;28;20441;-46
2023/12/03 01:55:03;;;;;;;0.45;0.45;;;;;;;1.21;100.00;99192.78;5092618;28;20058;-46
2023/12/03 01:57:30;;;;;;;0.20;0.20;;;;;;;1.31;100.00;99192.81;5093942;28;20033;-46
2023/12/03 01:59:55;;;;;;;0.10;0.10;;;;;;;1.37;100.00;99195.72;5092558;28;20035;-46
2023/12/03 02:02:21;;;;;;;0.10;0.10;;;;;;;1.47;100.00;99194.94;5094003;28;20028;-46
2023/12/03 02:04:47;;;;;;;0.10;0.10;;;;;;;1.62;100.00;99203.19;5092363;28;20020;-46
2023/12/03 02:07:13;;;;;;;0.10;0.10;;;;;;;1.62;100.00;99214.34;5093693;28;20558;-46
2023/12/03 02:09:40;;;;;;;0.10;0.10;;;;;;;1.62;100.00;99203.19;5093773;28;20024;-45
2023/12/03 02:12:06;;;;;;;1.20;1.08;;;;;;;1.55;100.00;99208.03;5093573;28;20028;-46
2023/12/03 02:14:33;;;;;;;0.10;0.10;;;;;;;1.61;100.00;99217.91;5093585;28;20547;-46
2023/12/03 02:16:58;;;;;;;0.10;0.10;;;;;;;1.80;100.00;99211.97;5093528;28;20020;-46
2023/12/03 02:19:24;;;;;;;0.40;0.40;;;;;;;1.85;100.00;99212.41;5092186;28;20393;-46
2023/12/03 02:21:50;;;;;;;0.45;0.45;;;;;;;1.83;100.00;99209.09;5093418;28;20028;-45
2023/12/03 02:24:15;;;;;;;0.60;0.60;;;;;;;1.74;100.00;99217.66;5093347;28;20020;-46
2023/12/03 02:26:41;;;;;;;1.27;1.25;;;;;;;1.81;100.00;99211.00;5093355;28;20375;-46
2023/12/03 02:29:07;;;;;;;0.75;0.63;;;;;;;1.75;100.00;99208.94;5091753;28;20093;-46
2023/12/03 02:31:32;;;;;;;0.60;0.60;;;;;;;1.73;100.00;99206.50;5091958;28;20016;-46
2023/12/03 02:34:08;;;;;;;1.73;1.63;;;;;;;1.94;100.00;99200.44;5091875;28;20475;-46
2023/12/03 02:36:34;;;;;;;1.42;1.33;;;;;;;2.08;100.00;99199.25;5092779;28;20393;-45
2023/12/03 02:39:00;;;;;;;0.20;0.20;;;;;;;2.07;100.00;99198.41;5093109;28;20028;-46
2023/12/03 02:41:25;;;;;;;0.00;0.00;;;;;;;2.19;100.00;99199.09;5091690;28;20497;-45
2023/12/03 02:43:51;;;;;;;0.40;0.40;;;;;;;2.09;100.00;99201.66;5092975;28;20016;-46
2023/12/03 02:46:17;;;;;;;0.40;0.40;;;;;;;1.93;100.00;99191.00;5092928;28;20031;-46
2023/12/03 02:48:42;;;;;;;0.10;0.10;;;;;;;2.09;100.00;99195.69;5092910;28;20030;-46
2023/12/03 02:51:09;;;;;;;0.10;0.10;;;;;;;2.01;100.00;99196.34;5091542;28;20510;-46
2023/12/03 02:53:38;;;;;;;0.10;0.10;;;;;;;1.94;100.00;99198.66;5092865;28;20103;-45
2023/12/03 02:56:05;;;;;;;0.40;0.40;;;;;;;2.23;100.00;99202.25;5092772;28;20028;-46
2023/12/03 02:58:30;;;;;;;0.10;0.10;;;;;;;2.63;100.00;99204.72;5092768;28;20543;-46
2023/12/03 03:00:56;;;;;;;1.02;1.02;;;;;;;2.88;100.00;99203.38;5092736;28;20056;-46
2023/12/03 03:03:22;;;;;;;0.13;0.13;;;;;;;3.23;100.00;99211.50;5092622;28;20062;-46
2023/12/03 03:05:47;;;;;;;0.00;0.00;;;;;;;3.35;100.00;99200.81;5091256;28;20063;-45
2023/12/03 03:08:13;;;;;;;2.00;1.85;;;;;;;3.29;100.00;99198.78;5092545;28;20099;-46
2023/12/03 03:10:38;;;;;;;0.20;0.20;;;;;;;3.40;100.00;99197.78;5092524;28;20047;-46
2023/12/03 03:13:04;;;;;;;0.20;0.20;;;;;;;3.48;100.00;99204.88;5092489;28;20083;-46
2023/12/03 03:15:30;;;;;;;0.10;0.10;;;;;;;3.49;100.00;99203.91;5091178;28;20074;-46
2023/12/03 03:17:55;;;;;;;0.10;0.10;;;;;;;3.56;100.00;99204.97;5091086;28;20509;-46
2023/12/03 03:20:22;;;;;;;0.30;0.30;;;;;;;3.59;100.00;99212.47;5091034;28;20024;-46
2023/12/03 03:22:49;;;;;;;0.10;0.10;;;;;;;3.57;100.00;99209.22;5092323;28;20028;-46
2023/12/03 03:25:15;;;;;;;2.55;0.80;;;;;;;3.54;100.00;99212.06;5092175;28;20453;-46
2023/12/03 03:27:41;;;;;;;0.20;0.20;;;;;;;3.37;100.00;99208.47;5092326;28;20028;-46
2023/12/03 03:30:07;;;;;;;1.55;1.00;;;;;;;3.25;100.00;99205.22;5091938;28;20455;-46
2023/12/03 03:32:34;;;;;;;0.00;0.00;;;;;;;3.27;100.00;99212.84;5090903;28;20058;-46
2023/12/03 03:34:59;;;;;;;0.10;0.10;;;;;;;3.20;100.00;99204.81;5092157;28;20040;-46
2023/12/03 03:37:25;;;;;;;1.50;1.40;;;;;;;3.01;100.00;99218.63;5092138;28;20394;-46
2023/12/03 03:39:51;;;;;;;0.15;0.15;;;;;;;2.89;100.00;99212.78;5092082;28;20367;-46
2023/12/03 03:42:17;;;;;;;0.10;0.10;;;;;;;2.73;100.00;99221.09;5090726;28;20444;-46
2023/12/03 03:44:42;;;;;;;0.32;0.32;;;;;;;2.71;100.00;99214.44;5092004;28;20059;-46
2023/12/03 03:47:12;;;;;;;4.10;1.98;;;;;;;2.67;100.00;99221.66;5092242;28;20545;-46
2023/12/03 03:49:37;;;;;;;0.10;0.10;;;;;;;2.35;100.00;99229.66;5090714;28;20031;-46
2023/12/03 03:52:03;;;;;;;0.10;0.10;;;;;;;2.28;100.00;99234.56;5090632;28;20016;-46
2023/12/03 03:54:29;;;;;;;0.20;0.20;;;;;;;2.30;100.00;99237.84;5090551;28;20047;-46
2023/12/03 03:56:55;;;;;;;0.13;0.13;;;;;;;2.52;100.00;99233.38;5090593;28;20047;-46
2023/12/03 03:59:20;;;;;;;0.00;0.00;;;;;;;2.47;100.00;99236.34;5090588;28;20050;-46
2023/12/03 04:01:46;;;;;;;0.10;0.10;;;;;;;2.40;100.00;99236.09;5090525;28;20495;-46
2023/12/03 04:04:12;;;;;;;0.57;0.57;;;;;;;2.48;100.00;99232.81;5090432;28;20375;-46
2023/12/03 04:06:44;;;;;;;0.10;0.10;;;;;;;2.29;100.00;99238.78;5090458;28;20024;-46
2023/12/03 04:09:13;;;;;;;0.10;0.10;;;;;;;2.15;100.00;99237.41;5091710;28;20020;-46
2023/12/03 04:11:44;;;;;;;0.65;0.65;;;;;;;2.18;100.00;99242.31;5090391;28;20077;-46
2023/12/03 04:14:15;;;;;;;0.10;0.10;;;;;;;2.39;100.00;99239.66;5090476;28;20039;-46
2023/12/03 04:16:42;;;;;;;0.10;0.10;;;;;;;2.67;100.00;99239.78;5090441;28;20039;-46
2023/12/03 04:19:08;;;;;;;0.35;0.35;;;;;;;2.87;100.00;99240.59;5091705;28;20024;-46
2023/12/03 04:21:36;;;;;;;0.52;0.52;;;;;;;2.95;100.00;99245.91;5090384;28;20103;-46
2023/12/03 04:24:02;;;;;;;0.10;0.10;;;;;;;2.89;100.00;99243.88;5091481;28;20511;-46
2023/12/03 04:26:28;;;;;;;0.88;0.77;;;;;;;2.96;100.00;99244.16;5091663;28;20111;-46
2023/12/03 04:28:54;;;;;;;0.68;0.68;;;;;;;2.97;100.00;99241.41;5091377;28;20099;-46
2023/12/03 04:31:25;;;;;;;5.10;1.20;;;;;;;3.11;100.00;99247.97;5090265;28;20032;-46
2023/12/03 04:33:52;;;;;;;0.85;0.85;;;;;;;3.08;100.00;99250.00;5091590;28;20051;-45
2023/12/03 04:36:19;;;;;;;0.13;0.13;;;;;;;3.09;100.00;99251.66;5091461;28;20016;-46
2023/12/03 04:38:45;;;;;;;0.52;0.52;;;;;;;3.05;100.00;99253.69;5073369;28;20119;-46
2023/12/03 04:41:12;;;;;;;1.35;1.30;;;;;;;3.17;100.00;99255.19;5091730;28;20043;-46
2023/12/03 04:43:38;;;;;;;0.10;0.10;;;;;;;3.08;100.00;99252.59;5090146;28;20131;-46
2023/12/03 04:46:04;;;;;;;0.30;0.30;;;;;;;2.82;100.00;99253.19;5091585;28;20744;-46
2023/12/03 04:48:31;;;;;;;0.22;0.22;;;;;;;2.71;100.00;99248.13;5091443;28;20095;-46
2023/12/03 04:50:57;;;;;;;0.50;0.50;;;;;;;2.76;100.00;99257.13;5090048;28;20035;-46
2023/12/03 04:53:23;;;;;;;1.40;1.33;;;;;;;2.42;100.00;99268.81;5091353;28;20024;-46
2023/12/03 04:55:49;;;;;;;0.50;0.50;;;;;;;2.12;100.00;99258.38;5091339;28;20034;-46
2023/12/03 04:58:14;;;;;;;1.75;1.65;;;;;;;2.03;100.00;99269.50;5090782;28;20513;-46
2023/12/03 05:00:40;;;;;;;0.15;0.15;;;;;;;1.89;100.00;99270.72;5095056;28;20032;-46
2023/12/03 05:03:06;;;;;;;0.40;0.40;;;;;;;1.82;100.00;99268.78;5094982;28;20020;-46
2023/12/03 05:05:31;;;;;;;0.38;0.38;;;;;;;2.01;100.00;99271.41;5093474;28;20022;-46
2023/12/03 05:07:57;;;;;;;2.65;1.00;;;;;;;2.42;100.00;99268.81;5094972;28;20108;-46
2023/12/03 05:10:23;;;;;;;0.43;0.43;;;;;;;2.49;100.00;99280.28;5095086;28;20517;-46
2023/12/03 05:12:48;;;;;;;0.40;0.40;;;;;;;2.53;100.00;99287.63;5076684;28;20032;-46
2023/12/03 05:15:14;;;;;;;0.30;0.30;;;;;;;2.50;100.00;99279.34;5094774;28;20393;-46
2023/12/03 05:17:40;;;;;;;0.93;0.93;;;;;;;2.32;100.00;99289.50;5094716;28;20028;-46
2023/12/03 05:20:07;;;;;;;0.40;0.40;;;;;;;2.13;100.00;99290.25;5093339;28;20024;-46
2023/12/03 05:22:33;;;;;;;0.10;0.10;;;;;;;2.03;100.00;99297.19;5093350;28;20024;-46
2023/12/03 05:24:58;;;;;;;0.75;0.75;;;;;;;1.91;100.00;99297.28;5093210;28;20016;-46
2023/12/03 05:27:24;;;;;;;0.10;0.10;;;;;;;1.83;100.00;99293.69;5093199;28;20489;-47
2023/12/03 05:29:50;;;;;;;2.33;2.22;;;;;;;1.82;100.00;99297.25;5092939;28;20044;-47
2023/12/03 05:32:16;;;;;;;0.63;0.63;;;;;;;1.74;100.00;99306.44;5094406;28;20016;-46
2023/12/03 05:34:45;;;;;;;0.85;0.85;;;;;;;1.79;100.00;99309.47;5094674;28;20759;-46
2023/12/03 05:37:12;;;;;;;0.10;0.10;;;;;;;1.63;100.00;99308.28;5093009;28;20048;-46
2023/12/03 05:39:38;;;;;;;1.15;1.10;;;;;;;1.48;100.00;99306.03;5093048;28;20028;-46
2023/12/03 05:42:04;;;;;;;1.60;1.50;;;;;;;1.44;100.00;99309.00;5092890;28;20524;-46
2023/12/03 05:44:30;;;;;;;0.10;0.10;;;;;;;1.52;100.00;99314.34;5094164;28;20059;-46
2023/12/03 05:46:55;;;;;;;2.20;1.55;;;;;;;1.43;100.00;99315.94;5094223;28;20025;-46
2023/12/03 05:49:21;;;;;;;0.10;0.10;;;;;;;1.32;100.00;99321.97;5092917;28;20568;-46
2023/12/03 05:51:47;;;;;;;0.50;0.50;;;;;;;1.28;100.00;99319.78;5094110;28;20111;-46
2023/12/03 05:54:12;;;;;;;0.68;0.68;;;;;;;1.30;100.00;99329.03;5092784;28;20066;-46
2023/12/03 05:56:38;;;;;;;0.55;0.55;;;;;;;1.36;100.00;99325.16;5094006;28;20505;-46
2023/12/03 05:59:04;;;;;;;1.08;1.08;;;;;;;1.37;100.00;99322.44;5093947;28;20487;-46
2023/12/03 06:01:30;;;;;;;3.53;0.95;;;;;;;1.42;100.00;99336.75;5092581;28;20103;-46
2023/12/03 06:03:56;;;;;;;1.35;1.25;;;;;;;1.65;100.00;99334.84;5093644;28;20058;-46
2023/12/03 06:06:22;;;;;;;2.47;1.02;;;;;;;1.76;100.00;99333.00;5093773;28;20024;-46
2023/12/03 06:08:48;;;;;;;0.95;0.95;;;;;;;1.67;100.00;99335.53;5092422;28;20024;-46
2023/12/03 06:11:14;;;;;;;0.10;0.10;;;;;;;1.50;100.00;99337.75;5092612;28;20359;-46
2023/12/03 06:13:40;;;;;;;0.10;0.10;;;;;;;1.26;100.00;99347.53;5092371;28;20050;-46
2023/12/03 06:16:07;;;;;;;0.10;0.10;;;;;;;1.11;100.00;99344.44;5093530;28;20072;-46
2023/12/03 06:18:32;;;;;;;0.20;0.20;;;;;;;1.15;100.00;99332.91;5093816;28;20028;-46
2023/12/03 06:20:58;;;;;;;0.10;0.10;;;;;;;1.13;100.00;99337.38;5093521;28;20046;-46
2023/12/03 06:23:24;;;;;;;3.13;1.50;;;;;;;1.11;100.00;99341.84;5093407;28;20023;-46
2023/12/03 06:25:49;;;;;;;0.10;0.10;;;;;;;1.09;100.00;99336.78;5092000;28;20047;-46
2023/12/03 06:28:15;;;;;;;0.88;0.55;;;;;;;1.28;100.00;99343.06;5093337;28;20109;-46
2023/12/03 06:30:40;;;;;;;0.47;0.47;;;;;;;1.34;100.00;99340.78;5093017;28;20062;-46
2023/12/03 06:33:06;;;;;;;0.30;0.30;;;;;;;1.35;100.00;99337.25;5093306;28;20024;-46
2023/12/03 06:35:32;;;;;;;0.55;0.55;;;;;;;1.40;100.00;99335.09;5093187;28;20027;-46
2023/12/03 06:37:57;;;;;;;0.15;0.15;;;;;;;1.47;100.00;99340.63;5093098;28;20024;-46
2023/12/03 06:40:23;;;;;;;0.10;0.10;;;;;;;1.48;100.00;99338.84;5093136;28;20394;-46
2023/12/03 06:42:49;;;;;;;0.20;0.20;;;;;;;1.48;100.00;99336.25;5093096;28;20494;-46
2023/12/03 06:45:15;;;;;;;1.48;0.50;;;;;;;1.44;100.00;99337.44;5092916;28;20016;-46
2023/12/03 06:47:40;;;;;;;0.65;0.65;;;;;;;1.34;100.00;99333.03;5092954;28;20039;-46
2023/12/03 06:50:07;;;;;;;1.75;1.17;;;;;;;1.43;100.00;99330.63;5091546;28;20032;-46
2023/12/03 06:52:32;;;;;;;0.68;0.68;;;;;;;1.45;100.00;99332.16;5091590;28;20141;-46
2023/12/03 06:54:58;;;;;;;0.30;0.30;;;;;;;1.44;100.00;99342.63;5092842;28;20481;-46
2023/12/03 06:57:23;;;;;;;0.38;0.38;;;;;;;1.37;100.00;99345.72;5091450;28;20552;-46
2023/12/03 06:59:49;;;;;;;2.60;0.90;;;;;;;1.31;100.00;99350.53;5092680;28;20024;-45
2023/12/03 07:02:15;;;;;;;0.13;0.13;;;;;;;1.21;100.00;99350.50;5091358;28;20057;-46
2023/12/03 07:04:41;;;;;;;0.30;0.30;;;;;;;1.18;100.00;99361.06;5092568;28;20028;-47
2023/12/03 07:07:06;;;;;;;0.30;0.30;;;;;;;1.17;100.00;99354.28;5091389;28;20024;-46
2023/12/03 07:09:32;;;;;;;0.20;0.20;;;;;;;1.09;100.00;99360.06;5092581;28;20028;-46
2023/12/03 07:11:58;;;;;;;0.10;0.10;;;;;;;1.06;100.00;99360.28;5091219;28;20103;-46
2023/12/03 07:14:23;;;;;;;0.43;0.43;;;;;;;1.15;100.00;99361.31;5092475;28;20020;-46
2023/12/03 07:16:49;;;;;;;0.10;0.10;;;;;;;1.17;100.00;99357.66;5091066;28;20032;-46
2023/12/03 07:19:15;;;;;;;1.42;1.40;;;;;;;1.40;100.00;99362.75;5091138;28;20034;-46
2023/12/03 07:21:40;;;;;;;2.65;1.48;;;;;;;1.71;100.00;99361.06;5092087;28;20367;-46
2023/12/03 07:24:07;;;;;;;2.28;2.17;;;;;;;2.34;100.00;99367.91;5092225;28;20020;-46
2023/12/03 07:26:33;;;;;;;0.17;0.17;;;;;;;2.99;100.00;99366.53;5092320;28;20397;-46
2023/12/03 07:28:59;;;;;;;2.55;2.35;;;;;;;3.35;100.00;99379.00;5091843;28;20074;-47
2023/12/03 07:31:25;;;;;;;0.43;0.43;;;;;;;3.12;100.00;99381.03;5090968;28;20040;-47
2023/12/03 07:33:51;;;;;;;0.45;0.45;;;;;;;2.74;100.00;99375.66;5091010;28;20089;-46
2023/12/03 07:36:16;;;;;;;0.45;0.45;;;;;;;2.43;100.00;99369.69;5092160;28;20464;-46
2023/12/03 07:38:42;;;;;;;0.20;0.20;;;;;;;2.18;100.00;99376.97;5092182;28;20020;-46
2023/12/03 07:41:11;;;;;;;3.03;1.83;;;;;;;2.16;100.00;99383.22;5092092;28;20103;-46
2023/12/03 07:43:37;;;;;;;0.75;0.75;;;;;;;2.35;100.00;99385.06;5092050;28;20032;-46
2023/12/03 07:46:03;;;;;;;0.25;0.25;;;;;;;2.39;100.00;99378.69;5091872;28;20020;-46
2023/12/03 07:48:29;;;;;;;0.65;0.65;;;;;;;2.40;100.00;99375.97;5092042;28;20450;-46
2023/12/03 07:50:55;;;;;;;0.50;0.50;;;;;;;2.33;100.00;99374.84;5090656;28;20107;-46
2023/12/03 07:53:20;;;;;;;1.85;0.75;;;;;;;2.04;100.00;99372.13;5091972;28;20078;-46
2023/12/03 07:55:46;;;;;;;0.10;0.10;;;;;;;1.76;100.00;99366.66;5091928;28;20493;-46
2023/12/03 07:58:12;;;;;;;0.10;0.10;;;;;;;1.66;100.00;99359.78;5090586;28;20035;-46
2023/12/03 08:00:39;;;;;;;0.10;0.10;;;;;;;1.66;100.00;99355.44;5091858;28;20018;-46
2023/12/03 08:03:04;;;;;;;0.10;0.10;;;;;;;1.74;100.00;99359.97;5090554;28;20020;-46
2023/12/03 08:05:30;;;;;;;0.10;0.10;;;;;;;1.90;100.00;99356.94;5091724;28;20382;-46
2023/12/03 08:07:56;;;;;;;0.10;0.10;;;;;;;1.91;100.00;99354.22;5091696;28;20036;-46
2023/12/03 08:10:22;;;;;;;0.20;0.20;;;;;;;1.90;100.00;99352.56;5091732;28;20025;-46
2023/12/03 08:12:47;;;;;;;0.10;0.10;;;;;;;1.98;100.00;99355.34;5091787;28;20101;-46
2023/12/03 08:15:13;;;;;;;0.10;0.10;;;;;;;2.16;100.00;99358.16;5091688;28;20059;-46
2023/12/03 08:17:39;;;;;;;1.05;0.98;;;;;;;3.18;100.00;99363.16;5091734;28;20111;-46
2023/12/03 08:20:05;;;;;;;0.80;0.80;;;;;;;4.76;100.00;99352.19;5090311;28;20028;-46
2023/12/03 08:22:32;;;;;;;0.20;0.20;;;;;;;6.06;100.00;99356.03;5091699;28;20024;-46
2023/12/03 08:24:58;;;;;;;0.52;0.52;;;;;;;6.99;100.00;99363.88;5073593;28;20016;-46
2023/12/03 08:27:24;;;;;;;0.20;0.20;;;;;;;7.56;100.00;99363.91;5091588;28;20054;-48
2023/12/03 08:29:50;;;;;;;2.30;1.00;;;;;;;7.84;100.00;99366.16;5091323;28;20068;-49
2023/12/03 08:32:16;;;;;;;1.83;1.17;;;;;;;7.93;100.00;99361.75;5090252;28;20051;-49
2023/12/03 08:34:41;;;;;;;1.65;0.98;;;;;;;8.10;100.00;99365.16;5095046;28;20035;-49
2023/12/03 08:37:07;;;;;;;0.55;0.55;;;;;;;8.60;100.00;99356.16;5094187;28;20065;-49
2023/12/03 08:39:33;;;;;;;0.60;0.60;;;;;;;9.17;100.00;99355.00;5095488;28;20390;-49
2023/12/03 08:41:58;;;;;;;1.17;1.05;;;;;;;9.44;100.00;99358.06;5095395;28;20023;-49
2023/12/03 08:44:25;;;;;;;0.15;0.15;;;;;;;9.86;100.00;99354.94;5095272;28;20111;-49
2023/12/03 08:46:51;;;;;;;0.20;0.20;;;;;;;10.25;100.00;99355.69;5095269;28;20093;-49
2023/12/03 08:49:17;;;;;;;0.20;0.20;;;;;;;10.56;100.00;99356.31;5094078;28;20476;-49
2023/12/03 08:51:43;;;;;;;1.48;0.77;;;;;;;10.81;100.00;99353.38;5095258;28;20489;-49
2023/12/03 08:54:09;;;;;;;0.20;0.20;;;;;;;11.09;100.00;99363.97;5095180;28;20115;-49
2023/12/03 08:56:35;;;;;;;0.03;0.03;;;;;;;11.19;100.00;99350.53;5095075;28;20099;-49
2023/12/03 08:59:00;;;;;;;0.52;0.52;;;;;;;11.44;100.00;99353.56;5095056;28;20547;-49
2023/12/03 09:01:26;;;;;;;0.65;0.65;;;;;;;11.94;100.00;99348.31;5095039;28;20016;-49
2023/12/03 09:03:52;;;;;;;0.20;0.20;;;;;;;12.24;100.00;99355.97;5094992;28;20024;-49
2023/12/03 09:06:17;;;;;;;0.10;0.10;;;;;;;12.40;100.00;99358.28;5076740;28;20028;-49
2023/12/03 09:08:44;;;;;;;0.05;0.05;;;;;;;12.66;100.00;99348.88;5093594;28;20032;-48
2023/12/03 09:11:10;;;;;;;1.65;0.70;;;;;;;12.92;100.00;99358.69;5093482;28;20035;-47
2023/12/03 09:13:36;;;;;;;0.00;0.00;;;;;;;13.33;100.00;99353.31;5094894;28;20137;-47
2023/12/03 09:16:01;;;;;;;0.40;0.30;;;;;;;13.91;100.00;99360.59;5093450;28;20474;-48
2023/12/03 09:18:27;;;;;;;0.10;0.10;;;;;;;14.46;100.00;99354.97;5094736;28;20028;-47
2023/12/03 09:20:53;;;;;;;0.08;0.08;;;;;;;13.94;100.00;99354.09;5094676;28;20023;-47
2023/12/03 09:23:19;;;;;;;0.57;0.57;;;;;;;13.32;100.00;99367.50;5093326;28;20040;-47
2023/12/03 09:25:45;;;;;;;0.45;0.45;;;;;;;12.71;100.00;99370.97;5093248;28;20024;-47
2023/12/03 09:28:11;;;;;;;1.25;1.15;;;;;;;13.14;100.00;99375.97;5094517;28;20513;-47
2023/12/03 09:30:38;;;;;;;6.13;2.72;;;;;;;13.61;100.00;99381.31;5094198;28;20055;-47
2023/12/03 09:33:04;;;;;;;2.28;2.17;;;;;;;13.81;100.00;99391.06;5094551;28;20073;-47
2023/12/03 09:35:31;;;;;;;3.25;3.05;;;;;;;13.81;100.00;99391.88;5093098;28;20043;-48
2023/12/03 09:37:57;;;;;;;1.83;1.63;;;;;;;14.22;100.00;99392.63;5094387;28;20012;-47
2023/12/03 09:40:24;;;;;;;1.80;1.58;;;;;;;14.80;100.00;99386.56;5094250;28;20024;-48
2023/12/03 09:42:51;;;;;;;0.90;0.90;;;;;;;15.40;100.00;99384.38;5094241;28;20024;-48
2023/12/03 09:45:19;;;;;;;2.00;1.80;;;;;;;15.83;100.00;99386.31;5075966;28;20056;-47
2023/12/03 09:47:49;;;;;;;6.35;2.63;;;;;;;15.65;100.00;99387.03;5094220;28;20069;-48
2023/12/03 09:50:16;;;;;;;0.38;0.38;;;;;;;15.46;100.00;99380.88;5094132;28;20031;-47
2023/12/03 09:52:45;;;;;;;0.30;0.30;;;;;;;15.38;100.00;99384.59;5092881;28;20024;-48
2023/12/03 09:55:12;;;;;;;0.30;0.30;;;;;;;15.57;100.00;99380.19;5093991;28;20043;-48
2023/12/03 09:57:41;;;;;;;0.30;0.30;;;;;;;15.88;100.00;99380.38;5094041;28;20024;-48
2023/12/03 10:00:08;;;;;;;0.32;0.32;;;;;;;15.76;100.00;99385.56;5093899;28;20047;-48
2023/12/03 10:02:37;;;;;;;1.02;1.02;;;;;;;16.07;100.00;99389.97;5093922;28;20016;-48
2023/12/03 10:05:03;;;;;;;0.30;0.30;;;;;;;16.40;100.00;99377.41;5093670;28;20020;-48
2023/12/03 10:07:29;;;;;;;1.90;1.75;;;;;;;16.11;100.00;99385.03;5094024;28;20024;-48
2023/12/03 10:09:59;;;;;;;0.50;0.50;;;;;;;16.22;100.00;99386.97;5093959;28;20051;-48
2023/12/03 10:12:52;;;;;;;1.73;0.55;;;;;;;16.22;100.00;99378.19;5093642;28;20110;-48
2023/12/03 10:15:18;;;;;;;0.35;0.35;;;;;;;15.51;100.00;99382.88;5091289;28;20048;-47
2023/12/03 10:17:44;;;;;;;0.00;0.00;;;;;;;15.18;100.00;99371.50;5093813;28;20023;-47
2023/12/03 10:20:21;;;;;;;1.92;1.83;;;;;;;15.40;100.00;99370.38;5093494;28;20032;-48
2023/12/03 10:22:51;;;;;;;1.02;1.02;;;;;;;15.21;100.00;99369.47;5093558;28;20044;-48
2023/12/03 10:25:27;;;;;;;0.80;0.77;;;;;;;15.14;100.00;99372.97;5092014;28;20078;-48
2023/12/03 10:27:57;;;;;;;0.93;0.93;;;;;;;15.04;100.00;99363.88;5093377;28;20024;-48
2023/12/03 10:30:24;;;;;;;0.20;0.20;;;;;;;15.20;100.00;99376.59;5091757;28;20039;-48
2023/12/03 10:32:50;;;;;;;0.15;0.10;;;;;;;14.93;100.00;99368.00;5091982;28;20024;-48
2023/12/03 10:35:15;;;;;;;0.13;0.13;;;;;;;14.64;100.00;99362.25;5093259;28;20094;-48
2023/12/03 10:37:42;;;;;;;0.38;0.38;;;;;;;14.33;100.00;99349.75;5091897;28;20028;-48
2023/12/03 10:40:08;;;;;;;0.82;0.82;;;;;;;14.09;100.00;99349.41;5093151;28;20027;-48
2023/12/03 10:42:38;;;;;;;0.30;0.30;;;;;;;13.65;100.00;99340.31;5093182;28;20020;-47
2023/12/03 10:45:10;;;;;;;0.68;0.68;;;;;;;13.86;100.00;99349.81;5093221;28;20085;-48
2023/12/03 10:47:37;;;;;;;0.17;0.17;;;;;;;14.09;100.00;99338.84;5093082;28;20024;-47
2023/12/03 10:50:07;;;;;;;0.25;0.25;;;;;;;14.50;100.00;99336.88;5092995;28;20024;-47
2023/12/03 10:52:38;;;;;;;0.10;0.10;;;;;;;15.05;100.00;99341.69;5092970;28;20028;-48
2023/12/03 10:55:05;;;;;;;0.60;0.60;;;;;;;15.06;100.00;99332.75;5092800;28;20028;-48
2023/12/03 10:57:33;;;;;;;8.30;1.58;;;;;;;15.37;100.00;99331.91;5092291;28;20032;-47
2023/12/03 11:00:09;;;;;;;0.00;0.00;;;;;;;14.95;100.00;99329.78;5092830;28;20446;-47
2023/12/03 11:02:44;;;;;;;0.10;0.10;;;;;;;15.26;100.00;99330.78;5092817;28;20046;-48
2023/12/03 11:05:27;;;;;;;0.60;0.60;;;;;;;15.43;100.00;99331.03;5092633;28;20060;-48
2023/12/03 11:07:53;;;;;;;2.55;1.58;;;;;;;15.43;100.00;99325.75;5092681;28;20032;-47
2023/12/03 11:10:19;;;;;;;0.45;0.45;;;;;;;15.20;100.00;99321.06;5091221;28;20024;-48
2023/12/03 11:12:47;;;;;;;0.32;0.32;;;;;;;15.18;100.00;99323.91;5092580;28;20543;-47
2023/12/03 11:15:14;;;;;;;1.00;0.90;;;;;;;15.14;100.00;99319.28;5092490;28;20020;-48
2023/12/03 11:17:44;;;;;;;0.25;0.25;;;;;;;14.82;100.00;99315.81;5092530;28;20780;-47
2023/12/03 11:20:17;;;;;;;0.40;0.40;;;;;;;14.57;100.00;99314.72;5092399;28;20035;-47
2023/12/03 11:23:21;;;;;;;0.17;0.17;;;;;;;14.45;100.00;99312.94;5074739;28;20229;-48
2023/12/03 11:26:02;;;;;;;0.47;0.47;;;;;;;14.15;100.00;99310.81;5069746;28;20468;-48
2023/12/03 11:28:28;;;;;;;1.45;0.65;;;;;;;14.14;100.00;99320.53;5092302;28;20053;-48